Nearby METAR Reports

 

KSJC - San Jose, California, USA
Distance from station: NE 14km
Actualización: 20/09/2018 09:53
Despejado
Despejado
 Viento del calm
Viento: Calma
Temperatura: 17°C
Rocío: 13°C
Humedad: 77%
Barómetro: 1009.8 hPa
Clouds: Despejado
Visibility: 16 km
2018/09/20 07:53 KSJC 200753Z AUTO 00000KT 10SM CLR 17/13 A2982 RMK AO2 SLP096 T01670128 402670106
KNUQ - Moffett Nas/Mtn, California, USA
Distance from station: N 14km
Actualización: 20/09/2018 09:56
Despejado
Despejado
 Viento del O
Viento: O 6 km/h
Temperatura: 16°C
Rocío: 12°C
Humedad: 77%
Barómetro: 1010.2 hPa
Clouds: Despejado
Visibility: 16 km
2018/09/20 07:56 KNUQ 200756Z 27003KT 10SM CLR 16/12 A2983 RMK AO2 SLP103 T01610122 402560106 $
 
KPAO - Palo Alto, California, USA
Distance from station: NNO 23km
Actualización: 20/09/2018 05:47
NOT Current
Despejado
Despejado
 Viento del O
Viento: O 11 km/h
Temperatura: 18°C
Rocío: 12°C
Humedad: 68%
Barómetro: 1010.8 hPa
Clouds: Despejado
Visibility: 16 km
2018/09/20 03:47 KPAO 200347Z 27006KT 10SM SKC 18/12 A2985
KRHV - San Jose/Reid, California, USA
Distance from station: ENE 19km
Actualización: 20/09/2018 06:47
NOT Current
Despejado
Despejado
 Viento del varies
Viento: varies 9 km/h
Temperatura: 18°C
Rocío: 11°C
Humedad: 64%
Barómetro: 1010.2 hPa
Clouds: Despejado
Visibility: 16 km
2018/09/20 04:47 KRHV 200447Z VRB05KT 10SM SKC 18/11 A2983 RMK LAST
 
KOAK - Oakland, California, USA
Distance from station: NNO 50km
Actualización: 20/09/2018 09:53
Despejado
Despejado
 Viento del calm
Viento: Calma
Temperatura: 16°C
Rocío: 12°C
Humedad: 77%
Barómetro: 1010.2 hPa
Clouds: Despejado
Visibility: 16 km
2018/09/20 07:53 KOAK 200753Z 00000KT 10SM CLR 16/12 A2983 RMK AO2 SLP100 T01560117 402330117
KSQL - San Carlos Airpo, California, USA
Distance from station: NO 34km
Actualización: 20/09/2018 10:15
Despejado
Despejado
 Viento del calm
Viento: Calma
Temperatura: 16°C
Rocío: 10°C
Humedad: 68%
Barómetro: 1010.2 hPa
Clouds: Despejado
Visibility: 16 km
2018/09/20 08:15 KSQL 200815Z AUTO 00000KT 10SM CLR 16/10 A2983 RMK AO2
 
KSFO - San Francisco, California, USA
Distance from station: NO 49km
Actualización: 20/09/2018 09:56
Despejado
Despejado
 Viento del calm
Viento: Calma
Temperatura: 15°C
Rocío: 9°C
Humedad: 68%
Barómetro: 1010.2 hPa
Clouds: Despejado
Visibility: 16 km
2018/09/20 07:56 KSFO 200756Z 00000KT 10SM CLR 15/09 A2983 RMK AO2 SLP100 T01500094 402390106
KE16 - San Martin, California, USA
Distance from station: ESE 43km
Actualización: 20/09/2018 10:15
Despejado
Despejado
 Viento del calm
Viento: Calma
Temperatura: 15°C
Rocío: 9°C
Humedad: 68%
Barómetro: 1010.8 hPa
Clouds: Despejado
Visibility: 16 km
2018/09/20 08:15 KE16 200815Z AUTO 00000KT 10SM CLR 15/09 A2985 RMK AO2
 
KWVI - Watsonville, California, USA
Distance from station: SSE 44km
Actualización: 20/09/2018 09:53
Despejado
Despejado
 Viento del NO
Viento: NO 7 km/h
Temperatura: 11°C
Rocío: 9°C
Humedad: 88%
Barómetro: 1010.2 hPa
Clouds: Despejado
Visibility: 16 km
2018/09/20 07:53 KWVI 200753Z AUTO 31004KT 10SM CLR 11/09 A2983 RMK AO2 SLP100 T01110094 402110106
KHAF - Half Moon Bay, California, USA
Distance from station: ONO 50km
Actualización: 20/09/2018 10:15
Cubierto
Cubierto
 Viento del calm
Viento: Calma
Temperatura: 8°C
Rocío: 7°C
Humedad: 93%
Barómetro: 1010.5 hPa
Clouds: Cubierto
Visibility: 11 km
Cloud details: Cubierto 91 m
2018/09/20 08:15 KHAF 200815Z AUTO 00000KT 7SM OVC003 08/07 A2984 RMK AO2
 
KHWD - Hayward, California, USA
Distance from station: N 44km
Actualización: 20/09/2018 09:54
Despejado
Despejado
 Viento del calm
Viento: Calma
Temperatura: 16°C
Rocío: 9°C
Humedad: 63%
Barómetro: 1009.8 hPa
Clouds: Despejado
Visibility: 16 km
2018/09/20 07:54 KHWD 200754Z AUTO 00000KT 10SM CLR 16/09 A2982 RMK AO2 SLP108 T01560094 402440122
KLVK - Livermore, California, USA
Distance from station: NNE 51km
Actualización: 20/09/2018 09:53
Despejado
Despejado
 Viento del calm
Viento: Calma
Temperatura: 16°C
Rocío: 8°C
Humedad: 59%
Barómetro: 1009.8 hPa
Clouds: Despejado
Visibility: 16 km
2018/09/20 07:53 KLVK 200753Z AUTO 00000KT 10SM CLR 16/08 A2982 RMK AO2 SLP094 T01560078 403000089